Time;durP1;ratioP1;P1;durP2;ratioP2;P2;SDS_P1;SDS_P2;PMS_P1;PMS_P2;Temp;Humidity;BMP_temperature;BMP_pressure;BME280_temperature;BME280_humidity;BME280_pressure;Samples;Min_cycle;Max_cycle;Signal;HPM_P1;HPM_P2
2021/12/07 00:00:29;;;;;;;2.17;1.38;;;2.60;99.90;;;;;;5032205;28;20084;-81
2021/12/07 00:02:55;;;;;;;2.38;2.17;;;2.50;99.90;;;;;;5031862;28;20053;-80
2021/12/07 00:05:21;;;;;;;0.85;0.85;;;2.50;99.90;;;;;;5033294;28;20048;-80
2021/12/07 00:07:47;;;;;;;0.95;0.95;;;2.40;99.90;;;;;;5031916;28;20062;-80
2021/12/07 00:10:14;;;;;;;3.55;1.95;;;2.40;99.90;;;;;;5032989;28;20128;-80
2021/12/07 00:12:43;;;;;;;1.70;1.70;;;2.40;99.90;;;;;;5030851;28;20045;-80
2021/12/07 00:15:11;;;;;;;2.22;2.08;;;2.40;99.90;;;;;;5032917;28;20486;-80
2021/12/07 00:17:37;;;;;;;2.72;2.20;;;2.30;99.90;;;;;;5031726;28;20037;-81
2021/12/07 00:20:08;;;;;;;2.95;2.50;;;2.40;99.90;;;;;;5033107;28;20041;-81
2021/12/07 00:22:35;;;;;;;2.72;2.38;;;2.30;99.90;;;;;;5031537;28;20052;-81
2021/12/07 00:25:00;;;;;;;4.93;3.08;;;2.30;99.90;;;;;;5031807;28;20042;-81
2021/12/07 00:27:26;;;;;;;1.98;1.90;;;2.20;99.90;;;;;;5031551;28;20053;-81
2021/12/07 00:29:52;;;;;;;3.20;2.25;;;2.20;99.90;;;;;;5033331;28;20405;-84
2021/12/07 00:32:33;;;;;;;5.53;1.40;;;2.20;99.90;;;;;;5011528;28;20069;-84
2021/12/07 00:37:49;;;;;;;1.00;1.00;;;2.00;99.90;;;;;;5011915;28;20136;-85
2021/12/07 00:40:17;;;;;;;1.45;1.45;;;2.00;99.90;;;;;;5012200;28;20064;-85
2021/12/07 00:42:44;;;;;;;1.52;1.48;;;2.00;99.90;;;;;;5011707;28;20050;-85
2021/12/07 00:45:13;;;;;;;10.43;2.20;;;2.00;99.90;;;;;;5011800;28;20042;-85
2021/12/07 00:47:38;;;;;;;2.65;2.55;;;1.90;99.90;;;;;;5012032;28;20088;-86
2021/12/07 00:50:06;;;;;;;2.13;1.98;;;1.80;99.90;;;;;;5011620;28;20116;-84
2021/12/07 00:52:32;;;;;;;2.35;2.20;;;1.80;99.90;;;;;;5012404;28;20410;-83
2021/12/07 00:54:59;;;;;;;3.33;3.10;;;1.70;99.90;;;;;;5011600;28;20049;-84
2021/12/07 00:57:25;;;;;;;1.30;1.30;;;1.70;99.90;;;;;;5011788;28;20112;-84
2021/12/07 00:59:51;;;;;;;4.88;0.80;;;1.70;99.90;;;;;;5011299;28;20430;-83
2021/12/07 01:02:17;;;;;;;1.10;1.10;;;1.60;99.90;;;;;;5014577;28;20436;-83
2021/12/07 01:04:51;;;;;;;2.85;1.27;;;1.60;99.90;;;;;;5031256;28;20084;-83
2021/12/07 01:07:47;;;;;;;1.30;1.30;;;1.50;99.90;;;;;;5031359;28;20045;-83
2021/12/07 01:26:29;;;;;;;2.47;1.92;;;1.40;99.90;;;;;;5034811;28;20056;-82
2021/12/07 01:28:55;;;;;;;6.32;2.95;;;1.40;99.90;;;;;;5035080;28;20049;-83
2021/12/07 01:31:28;;;;;;;1.88;1.77;;;1.40;99.90;;;;;;5035102;28;20045;-83
2021/12/07 01:34:14;;;;;;;1.15;1.15;;;1.30;99.90;;;;;;5034664;28;20084;-83
2021/12/07 01:44:59;;;;;;;1.23;1.23;;;1.30;99.90;;;;;;5034660;28;20137;-83
2021/12/07 02:00:36;;;;;;;1.83;1.60;;;1.10;99.90;;;;;;5035616;28;20042;-82
2021/12/07 02:03:03;;;;;;;1.73;1.55;;;1.10;99.90;;;;;;5034135;28;20045;-84
2021/12/07 02:05:28;;;;;;;2.30;1.75;;;1.10;99.90;;;;;;5034445;28;20508;-83
2021/12/07 02:07:54;;;;;;;3.38;1.52;;;1.10;99.90;;;;;;5035290;28;20053;-82
2021/12/07 02:10:24;;;;;;;0.63;0.63;;;1.10;99.90;;;;;;5033979;28;20042;-82
2021/12/07 02:12:51;;;;;;;1.20;1.20;;;1.10;99.90;;;;;;5017854;28;20123;-82
2021/12/07 02:15:23;;;;;;;0.57;0.57;;;1.10;99.90;;;;;;5017621;28;20038;-82
2021/12/07 02:17:50;;;;;;;0.55;0.55;;;1.10;99.90;;;;;;5017559;28;20045;-82
2021/12/07 02:20:18;;;;;;;3.90;2.17;;;1.10;99.90;;;;;;5034311;28;20390;-82
2021/12/07 02:22:45;;;;;;;2.17;0.88;;;1.10;99.90;;;;;;5017500;28;20053;-81
2021/12/07 02:25:13;;;;;;;2.75;0.85;;;1.20;99.90;;;;;;5034020;28;20056;-82
2021/12/07 02:27:39;;;;;;;6.78;1.33;;;1.10;99.90;;;;;;5033859;28;20536;-82
2021/12/07 02:30:08;;;;;;;2.45;1.80;;;1.10;99.90;;;;;;5017483;28;20042;-82
2021/12/07 02:32:34;;;;;;;1.48;1.48;;;1.10;99.90;;;;;;5013994;28;20398;-81
2021/12/07 02:35:00;;;;;;;1.88;1.70;;;1.10;99.90;;;;;;5013735;28;20041;-83
2021/12/07 02:37:30;;;;;;;0.20;0.20;;;1.00;99.90;;;;;;5014405;28;20053;-83
2021/12/07 02:39:58;;;;;;;0.68;0.68;;;1.10;99.90;;;;;;5013842;28;20077;-83
2021/12/07 02:42:24;;;;;;;8.10;3.22;;;1.10;99.90;;;;;;5013943;28;20057;-82
2021/12/07 02:44:51;;;;;;;2.40;2.20;;;1.00;99.90;;;;;;5013582;28;20046;-83
2021/12/07 02:47:17;;;;;;;3.33;1.63;;;1.00;99.90;;;;;;5014123;28;20498;-83
2021/12/07 02:49:43;;;;;;;7.97;3.75;;;1.00;99.90;;;;;;5013823;28;20048;-83
2021/12/07 02:52:10;;;;;;;1.40;1.33;;;1.10;99.90;;;;;;5013515;28;20486;-83
2021/12/07 02:54:43;;;;;;;2.60;2.40;;;1.10;99.90;;;;;;5013557;28;20054;-83
2021/12/07 02:57:10;;;;;;;3.78;2.33;;;1.10;99.90;;;;;;5013497;28;20061;-84
2021/12/07 02:59:41;;;;;;;1.75;1.50;;;1.00;99.90;;;;;;5013559;28;20054;-83
2021/12/07 03:02:09;;;;;;;1.43;1.33;;;1.10;99.90;;;;;;5015006;28;20487;-85
2021/12/07 03:04:42;;;;;;;4.60;2.55;;;1.00;99.90;;;;;;5033457;28;20363;-83
2021/12/07 03:26:31;;;;;;;0.95;0.95;;;1.10;99.90;;;;;;5012342;28;20053;-82
2021/12/07 03:28:59;;;;;;;1.30;0.88;;;1.20;99.90;;;;;;4995811;28;20414;-83
2021/12/07 03:31:26;;;;;;;1.85;1.00;;;1.20;99.90;;;;;;4996292;28;20196;-84
2021/12/07 03:33:53;;;;;;;0.88;0.88;;;1.20;99.90;;;;;;4995894;28;20050;-80
2021/12/07 03:36:20;;;;;;;0.82;0.82;;;1.20;99.90;;;;;;4996267;28;20046;-82
2021/12/07 03:38:46;;;;;;;0.90;0.90;;;1.20;99.90;;;;;;4995944;28;20042;-83
2021/12/07 03:41:13;;;;;;;5.93;1.25;;;1.20;99.90;;;;;;4995682;28;20514;-81
2021/12/07 03:43:39;;;;;;;2.65;2.03;;;1.20;99.90;;;;;;5012060;28;20557;-81
2021/12/07 03:46:05;;;;;;;8.85;1.20;;;1.20;99.90;;;;;;4995574;28;20045;-81
2021/12/07 03:48:31;;;;;;;0.77;0.77;;;1.20;99.90;;;;;;5016128;28;20040;-82
2021/12/07 03:50:57;;;;;;;2.20;2.00;;;1.20;99.90;;;;;;5016171;28;20172;-83
2021/12/07 03:53:23;;;;;;;0.70;0.70;;;1.20;99.90;;;;;;5033640;28;20053;-84
2021/12/07 03:55:49;;;;;;;3.85;1.98;;;1.20;99.90;;;;;;5015813;28;20048;-82
2021/12/07 03:58:15;;;;;;;0.47;0.38;;;1.30;99.90;;;;;;5032192;28;20490;-81
2021/12/07 04:00:42;;;;;;;2.92;1.95;;;1.20;99.90;;;;;;5032240;28;20045;-81
2021/12/07 04:03:11;;;;;;;5.82;2.17;;;1.20;99.90;;;;;;5031799;28;20045;-82
2021/12/07 04:05:45;;;;;;;1.38;1.27;;;1.20;99.90;;;;;;5032264;28;20045;-82
2021/12/07 04:08:20;;;;;;;1.25;1.25;;;1.20;99.90;;;;;;5031821;28;20053;-85
2021/12/07 04:10:46;;;;;;;1.00;1.00;;;1.20;99.90;;;;;;5031974;28;20057;-82
2021/12/07 04:13:12;;;;;;;1.48;1.02;;;1.30;99.90;;;;;;5015544;28;20041;-83
2021/12/07 04:15:38;;;;;;;4.57;2.40;;;1.30;99.90;;;;;;5032060;28;20042;-81
2021/12/07 04:18:05;;;;;;;1.88;1.75;;;1.30;99.90;;;;;;5031897;28;20057;-82
2021/12/07 04:20:32;;;;;;;1.65;1.48;;;1.30;99.90;;;;;;5031547;28;20045;-83
2021/12/07 04:22:58;;;;;;;1.67;1.58;;;1.20;99.90;;;;;;5031880;28;20057;-84
2021/12/07 04:25:24;;;;;;;2.55;1.55;;;1.20;99.90;;;;;;5031713;28;20041;-82
2021/12/07 04:27:52;;;;;;;5.95;3.60;;;1.20;99.90;;;;;;5031701;28;20378;-84
2021/12/07 04:30:26;;;;;;;0.82;0.82;;;1.20;99.90;;;;;;5031577;28;20053;-83
2021/12/07 04:32:53;;;;;;;0.32;0.32;;;1.20;99.90;;;;;;5032333;28;20091;-82
2021/12/07 04:35:20;;;;;;;5.72;2.35;;;1.10;99.90;;;;;;5035809;28;20077;-82
2021/12/07 04:37:46;;;;;;;1.35;1.23;;;1.10;99.90;;;;;;5033682;28;20072;-83
2021/12/07 04:40:16;;;;;;;0.82;0.82;;;1.10;99.90;;;;;;5031686;28;20088;-82
2021/12/07 04:42:43;;;;;;;0.47;0.47;;;1.10;99.90;;;;;;5031577;28;20087;-82
2021/12/07 04:45:17;;;;;;;1.27;1.27;;;1.10;99.90;;;;;;5015153;28;20064;-82
2021/12/07 04:58:50;;;;;;;4.72;3.17;;;0.90;99.90;;;;;;5013436;28;20605;-82
2021/12/07 05:01:17;;;;;;;3.53;1.17;;;0.90;99.90;;;;;;5013863;28;20058;-82
2021/12/07 05:03:44;;;;;;;1.67;1.33;;;0.90;99.90;;;;;;5013989;28;20129;-82
2021/12/07 05:06:11;;;;;;;2.63;1.27;;;0.80;99.90;;;;;;5013690;28;20045;-82
2021/12/07 05:08:46;;;;;;;1.80;1.42;;;0.70;99.90;;;;;;5013734;28;20080;-84
2021/12/07 05:14:10;;;;;;;1.85;1.23;;;0.60;99.90;;;;;;5013510;28;20060;-82
2021/12/07 05:16:52;;;;;;;0.70;0.70;;;0.60;99.90;;;;;;5013628;28;20038;-83
2021/12/07 05:25:13;;;;;;;5.28;3.10;;;0.50;99.90;;;;;;5030353;28;20557;-82
2021/12/07 05:38:51;;;;;;;1.10;1.10;;;0.40;99.90;;;;;;5030136;28;20153;-81
2021/12/07 05:41:18;;;;;;;0.52;0.50;;;0.30;99.90;;;;;;5013519;28;20142;-82
2021/12/07 05:43:44;;;;;;;2.22;1.13;;;0.30;99.90;;;;;;5013384;28;20510;-80
2021/12/07 05:46:09;;;;;;;1.85;1.75;;;0.30;99.90;;;;;;5013559;28;20057;-81
2021/12/07 05:48:35;;;;;;;3.70;3.25;;;0.20;99.90;;;;;;5013280;28;20391;-83
2021/12/07 05:51:01;;;;;;;0.30;0.30;;;0.20;99.90;;;;;;5013343;28;20144;-82
2021/12/07 05:53:26;;;;;;;0.95;0.95;;;0.10;99.90;;;;;;5030061;28;20062;-83
2021/12/07 05:55:52;;;;;;;1.27;1.27;;;0.10;99.90;;;;;;5013190;28;20049;-83
2021/12/07 05:58:19;;;;;;;0.43;0.43;;;0.10;99.90;;;;;;5013245;28;20053;-83
2021/12/07 06:00:46;;;;;;;2.22;0.88;;;0.10;99.90;;;;;;5013552;28;20052;-82
2021/12/07 06:03:13;;;;;;;1.40;1.40;;;0.10;99.90;;;;;;5013082;28;20620;-82
2021/12/07 06:05:41;;;;;;;4.85;4.60;;;0.20;99.90;;;;;;5013195;28;20041;-82
2021/12/07 06:08:07;;;;;;;1.45;1.45;;;0.20;99.90;;;;;;5013081;28;20437;-82
2021/12/07 06:10:34;;;;;;;1.65;1.65;;;0.20;99.90;;;;;;5011394;28;20050;-82
2021/12/07 06:12:59;;;;;;;1.73;1.20;;;0.20;99.90;;;;;;5014983;28;20077;-83
2021/12/07 06:15:27;;;;;;;1.35;1.25;;;0.20;99.90;;;;;;5014767;28;20415;-83
2021/12/07 06:17:53;;;;;;;2.35;2.25;;;0.30;99.90;;;;;;5014559;28;20128;-83
2021/12/07 06:20:20;;;;;;;1.77;0.82;;;0.30;99.90;;;;;;5014504;28;20038;-83
2021/12/07 06:22:47;;;;;;;10.38;1.75;;;0.30;99.90;;;;;;5014533;28;20449;-82
2021/12/07 06:25:13;;;;;;;0.40;0.40;;;0.50;99.90;;;;;;5014717;28;20077;-82
2021/12/07 06:27:40;;;;;;;0.73;0.73;;;0.40;99.90;;;;;;5014708;28;20449;-82
2021/12/07 06:30:08;;;;;;;1.60;1.50;;;0.50;99.90;;;;;;5014656;28;20376;-82
2021/12/07 06:32:34;;;;;;;0.82;0.82;;;0.50;99.90;;;;;;5014426;28;20046;-82
2021/12/07 06:34:59;;;;;;;1.73;1.08;;;0.50;99.90;;;;;;5014574;28;20046;-82
2021/12/07 06:37:25;;;;;;;1.63;0.68;;;0.50;99.90;;;;;;5014342;28;20526;-82
2021/12/07 06:39:51;;;;;;;2.20;2.13;;;0.60;99.90;;;;;;5015360;28;20042;-82
2021/12/07 06:42:16;;;;;;;2.47;2.38;;;0.60;99.90;;;;;;5014229;28;20045;-83
2021/12/07 06:44:42;;;;;;;0.45;0.45;;;0.60;99.90;;;;;;5014490;28;20513;-82
2021/12/07 06:47:08;;;;;;;2.08;1.98;;;0.60;99.90;;;;;;5014259;28;20050;-82
2021/12/07 06:49:34;;;;;;;0.73;0.73;;;0.60;99.90;;;;;;5014258;28;20050;-82
2021/12/07 06:52:01;;;;;;;0.68;0.65;;;0.60;99.90;;;;;;5013944;28;20046;-82
2021/12/07 06:54:26;;;;;;;1.05;1.05;;;0.60;99.90;;;;;;5013992;28;20516;-83
2021/12/07 06:56:53;;;;;;;2.28;1.98;;;0.60;99.90;;;;;;5015308;28;20053;-83
2021/12/07 06:59:19;;;;;;;3.38;1.25;;;0.60;99.90;;;;;;5015474;28;20034;-83
2021/12/07 07:01:46;;;;;;;0.32;0.32;;;0.60;99.90;;;;;;5013762;28;20045;-83
2021/12/07 07:04:14;;;;;;;0.50;0.50;;;0.50;99.90;;;;;;4997550;28;20038;-82
2021/12/07 07:06:41;;;;;;;5.50;1.50;;;0.50;99.90;;;;;;5014069;28;20046;-82
2021/12/07 07:09:07;;;;;;;1.50;1.33;;;0.50;99.90;;;;;;5013597;28;20061;-82
2021/12/07 07:11:33;;;;;;;0.75;0.75;;;0.40;99.90;;;;;;5014823;28;20056;-83
2021/12/07 07:14:00;;;;;;;0.90;0.90;;;0.40;99.90;;;;;;5013595;28;20112;-82
2021/12/07 07:16:26;;;;;;;8.50;2.92;;;0.40;99.90;;;;;;5013461;28;20475;-82
2021/12/07 07:18:51;;;;;;;4.30;3.90;;;0.30;99.90;;;;;;5013477;28;20061;-82
2021/12/07 07:21:17;;;;;;;10.18;9.18;;;0.30;99.90;;;;;;5014596;28;20058;-82
2021/12/07 07:23:43;;;;;;;6.63;3.38;;;0.30;99.90;;;;;;5013343;28;20069;-82
2021/12/07 07:26:09;;;;;;;6.60;4.95;;;0.20;99.90;;;;;;5013480;28;20050;-83
2021/12/07 07:28:35;;;;;;;3.20;2.03;;;0.20;99.90;;;;;;5013589;28;20046;-83
2021/12/07 07:31:04;;;;;;;6.70;6.00;;;0.20;99.90;;;;;;5013293;28;20531;-83
2021/12/07 07:33:30;;;;;;;10.38;3.30;;;0.20;99.90;;;;;;5013120;28;20133;-82
2021/12/07 07:35:55;;;;;;;2.10;2.00;;;0.20;99.90;;;;;;5013193;28;20081;-83
2021/12/07 07:38:22;;;;;;;3.78;1.48;;;0.30;99.90;;;;;;5013058;28;20058;-82
2021/12/07 07:40:48;;;;;;;0.90;0.90;;;0.40;99.90;;;;;;5013255;28;20459;-82
2021/12/07 07:43:16;;;;;;;2.53;2.33;;;0.40;99.90;;;;;;5013284;28;20050;-82
2021/12/07 07:45:46;;;;;;;6.13;2.45;;;0.50;99.90;;;;;;5012956;28;20091;-83
2021/12/07 07:48:12;;;;;;;4.82;3.10;;;0.50;99.90;;;;;;5013177;28;20085;-83
2021/12/07 07:50:38;;;;;;;3.97;3.72;;;0.60;99.90;;;;;;5012853;28;20069;-82
2021/12/07 07:53:04;;;;;;;2.33;2.13;;;0.70;99.90;;;;;;5012725;28;20454;-82
2021/12/07 07:55:30;;;;;;;1.70;1.65;;;0.70;99.90;;;;;;5012887;28;20455;-82
2021/12/07 07:57:56;;;;;;;5.03;2.53;;;0.90;99.90;;;;;;5012658;28;20034;-83
2021/12/07 08:00:22;;;;;;;2.85;1.65;;;0.90;99.90;;;;;;5012887;28;20121;-84
2021/12/07 08:02:48;;;;;;;2.63;2.53;;;1.00;99.90;;;;;;5013973;28;20092;-82
2021/12/07 08:05:15;;;;;;;5.55;3.22;;;1.10;99.90;;;;;;5012535;28;20176;-82
2021/12/07 08:07:41;;;;;;;2.75;2.53;;;1.00;99.90;;;;;;5013710;28;20637;-82
2021/12/07 08:10:08;;;;;;;0.65;0.65;;;1.00;99.90;;;;;;5012319;28;20514;-83
2021/12/07 08:12:34;;;;;;;0.50;0.50;;;1.00;99.90;;;;;;5029020;28;20386;-82
2021/12/07 08:15:00;;;;;;;2.83;0.90;;;0.90;99.90;;;;;;5012561;28;20398;-82
2021/12/07 08:17:26;;;;;;;2.67;2.45;;;0.90;99.90;;;;;;5012432;28;20049;-83
2021/12/07 08:19:52;;;;;;;0.35;0.35;;;0.90;99.90;;;;;;5028882;28;20050;-82
2021/12/07 08:22:17;;;;;;;0.65;0.65;;;0.90;99.90;;;;;;5012442;28;20509;-83
2021/12/07 08:24:44;;;;;;;0.40;0.40;;;0.90;99.90;;;;;;5012521;28;20042;-82
2021/12/07 08:27:09;;;;;;;1.67;1.58;;;0.90;99.90;;;;;;5012212;28;20380;-83
2021/12/07 08:29:35;;;;;;;1.33;0.88;;;0.90;99.90;;;;;;5013348;28;20053;-83
2021/12/07 08:32:01;;;;;;;0.85;0.85;;;0.80;99.90;;;;;;5012191;28;20077;-83
2021/12/07 08:34:27;;;;;;;0.85;0.77;;;0.80;99.90;;;;;;5011585;28;20046;-82
2021/12/07 08:36:52;;;;;;;3.45;2.38;;;0.80;99.90;;;;;;5012271;28;20049;-83
2021/12/07 08:39:18;;;;;;;4.18;3.50;;;0.70;99.90;;;;;;5012558;28;20513;-82
2021/12/07 08:41:44;;;;;;;2.25;2.08;;;0.70;99.90;;;;;;5011863;28;20402;-82
2021/12/07 08:44:10;;;;;;;2.17;1.83;;;0.70;99.90;;;;;;5012005;28;20050;-82
2021/12/07 08:46:37;;;;;;;3.20;2.50;;;0.70;99.90;;;;;;5012152;28;20423;-83
2021/12/07 08:49:05;;;;;;;5.30;4.10;;;0.70;99.90;;;;;;5012163;28;20045;-82
2021/12/07 08:51:34;;;;;;;17.95;2.58;;;0.70;99.90;;;;;;5012209;28;20042;-82
2021/12/07 08:54:18;;;;;;;1.30;0.77;;;0.70;99.90;;;;;;5013015;28;20057;-82
2021/12/07 08:59:40;;;;;;;5.57;4.03;;;0.70;99.90;;;;;;5011956;28;20085;-83
2021/12/07 09:02:06;;;;;;;2.35;2.05;;;0.80;99.90;;;;;;5011701;28;20410;-82
2021/12/07 09:04:32;;;;;;;4.97;2.70;;;0.80;99.90;;;;;;5011940;28;20045;-82
2021/12/07 09:06:58;;;;;;;1.55;1.45;;;0.80;99.90;;;;;;5011780;28;20050;-83
2021/12/07 09:09:24;;;;;;;1.42;1.33;;;0.80;99.90;;;;;;5011486;28;20049;-82
2021/12/07 09:11:52;;;;;;;1.98;1.90;;;0.80;99.90;;;;;;5028306;28;20141;-83
2021/12/07 09:14:19;;;;;;;1.27;1.23;;;0.80;99.90;;;;;;5013075;28;20052;-82
2021/12/07 09:16:45;;;;;;;2.10;2.00;;;0.90;99.90;;;;;;5013049;28;20046;-83
2021/12/07 09:19:11;;;;;;;4.22;3.33;;;0.80;99.90;;;;;;4995301;28;20216;-83
2021/12/07 09:21:37;;;;;;;7.47;0.98;;;0.90;99.90;;;;;;5011332;28;20049;-83
2021/12/07 09:24:04;;;;;;;2.25;2.15;;;0.90;99.90;;;;;;5011501;28;20077;-83
2021/12/07 09:26:30;;;;;;;4.60;1.70;;;0.90;99.90;;;;;;5011441;28;20080;-83
2021/12/07 09:28:56;;;;;;;0.70;0.68;;;0.90;99.90;;;;;;5011846;28;20038;-82
2021/12/07 09:31:22;;;;;;;2.30;2.20;;;0.90;99.90;;;;;;5011477;28;20479;-82
2021/12/07 09:33:49;;;;;;;0.98;0.90;;;1.00;99.90;;;;;;5012744;28;20537;-83
2021/12/07 09:36:15;;;;;;;0.82;0.82;;;1.00;99.90;;;;;;5011392;28;20038;-82
2021/12/07 09:38:41;;;;;;;1.38;1.35;;;1.10;99.90;;;;;;5011371;28;20050;-83
2021/12/07 09:44:48;;;;;;;0.60;0.60;;;1.10;99.90;;;;;;5012626;28;20045;-83
2021/12/07 09:47:14;;;;;;;1.02;1.02;;;1.10;99.90;;;;;;5014770;28;20407;-84
2021/12/07 09:49:39;;;;;;;6.80;1.05;;;1.10;99.90;;;;;;5015318;28;20046;-83
2021/12/07 09:52:05;;;;;;;0.95;0.73;;;1.10;99.90;;;;;;5015385;28;20096;-83
2021/12/07 09:54:31;;;;;;;1.45;1.10;;;1.20;99.90;;;;;;5016435;28;20046;-84
2021/12/07 09:56:57;;;;;;;0.80;0.80;;;1.30;99.90;;;;;;5016410;28;20116;-84
2021/12/07 09:59:25;;;;;;;0.68;0.68;;;1.30;99.90;;;;;;5016128;28;20042;-84
2021/12/07 10:01:51;;;;;;;2.92;1.60;;;1.40;99.90;;;;;;5015060;28;20085;-84
2021/12/07 10:04:18;;;;;;;0.43;0.43;;;1.50;99.90;;;;;;5015172;28;20037;-85
2021/12/07 10:06:44;;;;;;;0.32;0.32;;;1.50;99.90;;;;;;5015048;28;20164;-85
2021/12/07 10:09:10;;;;;;;1.15;1.15;;;1.60;99.90;;;;;;5014735;28;20090;-85
2021/12/07 10:11:36;;;;;;;0.50;0.50;;;1.60;99.90;;;;;;5016097;28;20061;-84
2021/12/07 10:14:02;;;;;;;9.48;2.65;;;1.70;99.90;;;;;;5014967;28;20053;-84
2021/12/07 10:16:28;;;;;;;2.83;0.68;;;1.80;99.90;;;;;;5015089;28;20099;-84
2021/12/07 10:18:54;;;;;;;0.77;0.77;;;1.80;99.90;;;;;;5015978;28;20398;-85
2021/12/07 10:21:27;;;;;;;9.75;2.95;;;1.90;99.90;;;;;;5014703;28;20049;-85
2021/12/07 10:23:54;;;;;;;1.80;1.65;;;2.00;99.90;;;;;;5015168;28;20396;-84
2021/12/07 10:26:36;;;;;;;1.98;1.88;;;2.10;99.90;;;;;;5014456;28;20045;-84
2021/12/07 10:29:07;;;;;;;3.88;0.93;;;2.10;99.90;;;;;;5014734;28;20448;-84
2021/12/07 10:31:52;;;;;;;0.77;0.77;;;2.30;99.90;;;;;;5014709;28;20045;-85
2021/12/07 10:34:21;;;;;;;0.30;0.30;;;2.40;99.90;;;;;;5014533;28;20045;-85
2021/12/07 10:36:52;;;;;;;1.23;1.23;;;2.50;99.90;;;;;;5014568;28;20037;-85
2021/12/07 10:39:26;;;;;;;2.53;1.35;;;2.50;99.90;;;;;;5014556;28;20049;-84
2021/12/07 10:41:58;;;;;;;0.60;0.60;;;2.60;99.90;;;;;;5014052;28;20042;-84
2021/12/07 10:44:33;;;;;;;1.10;1.10;;;2.60;99.90;;;;;;5014293;28;20505;-84
2021/12/07 10:47:04;;;;;;;1.55;0.52;;;2.60;99.90;;;;;;5014117;28;20128;-84
2021/12/07 10:49:36;;;;;;;0.70;0.70;;;2.60;99.90;;;;;;5014482;28;20395;-85
2021/12/07 10:52:28;;;;;;;2.35;1.67;;;2.70;99.90;;;;;;5014104;28;20137;-84
2021/12/07 10:54:56;;;;;;;;;;;2.70;99.90;;;;;;5015845;28;20089;-84
2021/12/07 10:57:53;;;;;;;1.13;1.05;;;2.70;99.90;;;;;;5014706;28;19921;-84
2021/12/07 11:00:25;;;;;;;10.50;2.40;;;2.60;99.90;;;;;;5015057;28;20108;-84
2021/12/07 11:02:55;;;;;;;3.65;3.45;;;2.60;99.90;;;;;;5013826;28;20049;-84
2021/12/07 11:05:34;;;;;;;0.65;0.65;;;2.70;99.90;;;;;;5013835;28;20134;-82
2021/12/07 11:08:01;;;;;;;0.57;0.57;;;2.70;99.90;;;;;;5013935;28;20046;-84
2021/12/07 11:10:30;;;;;;;1.92;1.75;;;2.70;99.90;;;;;;5014970;28;20053;-84
2021/12/07 11:13:18;;;;;;;0.60;0.60;;;2.80;99.90;;;;;;5013671;28;20041;-83
2021/12/07 11:15:52;;;;;;;0.45;0.45;;;2.90;99.90;;;;;;5013821;28;20372;-83
2021/12/07 11:18:40;;;;;;;0.95;0.95;;;2.90;99.90;;;;;;5014486;28;20140;-83
2021/12/07 11:21:15;;;;;;;1.67;1.60;;;3.00;99.90;;;;;;5013585;28;20408;-84
2021/12/07 11:23:48;;;;;;;2.38;2.28;;;3.00;99.90;;;;;;5013672;28;20058;-83
2021/12/07 11:31:52;;;;;;;0.45;0.45;;;3.10;99.90;;;;;;5013255;28;20056;-83
2021/12/07 11:34:21;;;;;;;0.60;0.60;;;3.20;99.90;;;;;;5013347;28;20374;-83
2021/12/07 11:36:51;;;;;;;1.95;1.02;;;3.20;99.90;;;;;;5013273;28;20081;-83
2021/12/07 11:39:31;;;;;;;0.55;0.55;;;3.20;99.90;;;;;;5013334;28;20045;-83
2021/12/07 11:42:21;;;;;;;8.00;3.92;;;3.30;99.90;;;;;;5013178;28;20053;-83
2021/12/07 11:44:50;;;;;;;1.50;1.50;;;3.30;99.90;;;;;;4996737;28;20042;-83
2021/12/07 11:47:22;;;;;;;6.03;5.22;;;3.30;99.90;;;;;;5013391;28;20101;-83
2021/12/07 11:49:48;;;;;;;1.67;1.55;;;3.50;99.90;;;;;;5012906;28;20112;-83
2021/12/07 11:52:14;;;;;;;2.05;1.88;;;3.50;99.90;;;;;;5014214;28;20038;-83
2021/12/07 11:54:41;;;;;;;1.33;1.33;;;3.50;99.90;;;;;;5012730;28;20045;-83
2021/12/07 11:57:10;;;;;;;2.22;1.02;;;3.50;99.90;;;;;;5012820;28;20124;-83
2021/12/07 11:59:37;;;;;;;5.25;2.70;;;3.60;99.90;;;;;;5012870;28;20486;-82
2021/12/07 12:02:03;;;;;;;14.25;2.28;;;3.60;99.90;;;;;;5012648;28;20092;-82
2021/12/07 12:04:29;;;;;;;1.73;1.13;;;3.80;99.90;;;;;;5012701;28;20441;-83
2021/12/07 12:06:57;;;;;;;4.57;1.83;;;3.70;99.90;;;;;;5012582;28;20054;-83
2021/12/07 12:09:26;;;;;;;1.05;0.98;;;3.70;99.90;;;;;;5012874;28;20100;-82
2021/12/07 12:12:14;;;;;;;5.68;3.47;;;3.70;99.90;;;;;;5028999;28;20054;-83
2021/12/07 12:15:14;;;;;;;7.05;1.65;;;3.80;99.90;;;;;;5012805;28;20447;-83
2021/12/07 12:17:57;;;;;;;1.05;0.98;;;3.90;99.90;;;;;;5012700;28;20050;-83
2021/12/07 12:20:31;;;;;;;4.38;3.13;;;3.90;99.90;;;;;;5012452;28;20049;-82
2021/12/07 12:23:09;;;;;;;0.75;0.75;;;3.90;99.90;;;;;;5012526;28;20586;-83
2021/12/07 12:25:36;;;;;;;1.50;0.85;;;4.00;99.90;;;;;;5012543;28;20425;-83
2021/12/07 12:28:02;;;;;;;2.58;2.47;;;4.10;99.90;;;;;;5012190;28;20049;-83
2021/12/07 12:30:39;;;;;;;0.52;0.52;;;4.20;99.90;;;;;;5012509;28;20065;-83
2021/12/07 12:33:12;;;;;;;15.38;2.20;;;4.20;99.90;;;;;;5012728;28;20050;-83
2021/12/07 12:35:42;;;;;;;9.63;4.72;;;4.10;99.90;;;;;;5012077;28;20510;-83
2021/12/07 12:38:34;;;;;;;2.08;1.98;;;4.20;99.90;;;;;;5012368;28;20131;-82
2021/12/07 12:41:04;;;;;;;1.98;1.45;;;4.20;99.90;;;;;;5009290;28;20502;-83
2021/12/07 12:43:44;;;;;;;2.03;0.68;;;4.30;99.90;;;;;;5011913;28;20490;-82
2021/12/07 12:46:15;;;;;;;2.58;2.20;;;4.30;99.90;;;;;;5012321;28;20478;-83
2021/12/07 12:48:50;;;;;;;1.00;1.00;;;4.30;99.90;;;;;;5012021;28;20112;-83
2021/12/07 12:51:17;;;;;;;1.60;1.50;;;4.40;99.90;;;;;;5011887;28;20045;-83
2021/12/07 12:53:44;;;;;;;1.05;1.05;;;4.40;99.90;;;;;;5011941;28;20056;-83
2021/12/07 12:56:29;;;;;;;1.60;1.60;;;4.40;99.90;;;;;;5011812;28;20585;-83
2021/12/07 12:58:57;;;;;;;0.75;0.75;;;4.40;99.90;;;;;;5011767;28;20042;-83
2021/12/07 13:01:31;;;;;;;2.38;2.17;;;4.50;99.90;;;;;;5011935;28;20502;-83
2021/12/07 13:04:26;;;;;;;0.40;0.40;;;4.50;99.90;;;;;;5013077;28;20495;-83
2021/12/07 13:07:30;;;;;;;2.75;2.38;;;4.50;99.90;;;;;;5010472;28;20149;-83
2021/12/07 13:09:54;;;;;;;2.05;1.08;;;4.60;99.90;;;;;;5009708;28;20065;-83
2021/12/07 13:12:41;;;;;;;0.25;0.25;;;4.70;99.90;;;;;;5011782;28;20414;-83
2021/12/07 13:15:10;;;;;;;1.00;0.88;;;4.70;99.90;;;;;;4995200;28;20495;-83
2021/12/07 13:17:44;;;;;;;1.65;1.55;;;4.80;99.90;;;;;;5011785;28;20052;-82
2021/12/07 13:20:12;;;;;;;1.05;1.05;;;4.90;99.90;;;;;;5013500;28;20426;-83
2021/12/07 13:22:49;;;;;;;0.82;0.82;;;4.90;99.90;;;;;;5015635;28;20116;-83
2021/12/07 13:25:19;;;;;;;2.08;1.95;;;5.00;99.90;;;;;;5015432;28;20048;-82
2021/12/07 13:28:04;;;;;;;2.17;1.40;;;5.00;99.90;;;;;;5015492;28;20499;-83
2021/12/07 13:30:45;;;;;;;1.67;1.48;;;5.00;99.90;;;;;;5016774;28;20042;-82
2021/12/07 13:33:31;;;;;;;1.02;0.75;;;5.00;99.90;;;;;;5015741;28;20041;-83
2021/12/07 13:35:58;;;;;;;1.35;1.33;;;5.00;99.90;;;;;;5015643;28;20056;-83
2021/12/07 13:38:27;;;;;;;1.40;1.38;;;5.00;99.90;;;;;;5015336;28;20399;-83
2021/12/07 13:41:13;;;;;;;1.00;1.00;;;5.00;99.90;;;;;;5015229;28;20046;-83
2021/12/07 13:43:40;;;;;;;1.08;1.08;;;5.00;99.90;;;;;;5015359;28;20046;-83
2021/12/07 13:46:27;;;;;;;1.45;1.45;;;5.00;99.90;;;;;;5015402;28;20564;-82
2021/12/07 13:49:06;;;;;;;6.10;1.65;;;5.00;99.90;;;;;;4998571;28;20069;-83
2021/12/07 13:51:32;;;;;;;2.90;2.20;;;5.00;99.90;;;;;;5016422;28;20117;-83
2021/12/07 13:54:00;;;;;;;2.88;1.67;;;4.90;99.90;;;;;;5015349;28;20473;-83
2021/12/07 13:56:33;;;;;;;1.38;1.38;;;5.00;99.90;;;;;;5014996;28;20042;-82
2021/12/07 13:59:14;;;;;;;3.53;3.17;;;4.90;99.90;;;;;;5031285;28;20397;-82
2021/12/07 14:01:47;;;;;;;0.80;0.80;;;4.80;99.90;;;;;;5015174;28;20049;-83
2021/12/07 14:04:12;;;;;;;0.60;0.60;;;4.80;99.90;;;;;;5015504;28;20493;-82
2021/12/07 14:06:49;;;;;;;0.75;0.75;;;4.70;99.90;;;;;;4998917;28;20088;-83
2021/12/07 14:09:17;;;;;;;1.00;1.00;;;4.60;99.90;;;;;;5014462;28;20077;-83
2021/12/07 14:11:43;;;;;;;0.68;0.68;;;4.50;99.90;;;;;;5014802;28;20092;-83
2021/12/07 14:14:15;;;;;;;0.32;0.32;;;4.40;99.90;;;;;;5015009;28;20049;-83
2021/12/07 14:16:42;;;;;;;1.35;0.93;;;4.30;99.90;;;;;;5014732;28;20546;-83
2021/12/07 14:19:08;;;;;;;1.00;0.85;;;4.20;99.90;;;;;;5014822;28;20063;-83
2021/12/07 14:21:34;;;;;;;2.47;1.10;;;4.20;99.90;;;;;;5014530;28;20058;-85
2021/12/07 14:24:08;;;;;;;1.65;0.85;;;4.10;99.90;;;;;;5014493;28;20096;-82
2021/12/07 14:26:38;;;;;;;3.88;3.67;;;4.10;99.90;;;;;;5015871;28;20089;-82
2021/12/07 14:29:14;;;;;;;1.05;1.05;;;4.00;99.90;;;;;;5014492;28;20100;-84
2021/12/07 14:31:57;;;;;;;1.02;1.00;;;3.90;99.90;;;;;;5013424;28;20054;-84
2021/12/07 14:34:24;;;;;;;0.68;0.63;;;3.80;99.90;;;;;;5014242;28;20510;-83
2021/12/07 14:37:00;;;;;;;6.05;2.25;;;3.80;99.90;;;;;;5015003;28;20054;-86
2021/12/07 14:39:31;;;;;;;1.08;1.08;;;3.80;99.90;;;;;;5014562;28;20050;-82
2021/12/07 14:42:09;;;;;;;6.80;2.15;;;3.60;99.90;;;;;;5014053;28;20410;-82
2021/12/07 14:44:37;;;;;;;2.00;1.80;;;3.60;99.90;;;;;;5014192;28;20498;-84
2021/12/07 14:47:07;;;;;;;0.20;0.20;;;3.60;99.90;;;;;;5014273;28;20042;-84
2021/12/07 14:49:49;;;;;;;0.68;0.68;;;3.50;99.90;;;;;;5015541;28;20042;-84
2021/12/07 14:52:21;;;;;;;1.73;1.38;;;3.40;99.90;;;;;;5014757;28;20041;-83